Time;durP1;ratioP1;P1;durP2;ratioP2;P2;SDS_P1;SDS_P2;PMS_P1;PMS_P2;Temp;Humidity;BMP_temperature;BMP_pressure;BME280_temperature;BME280_humidity;BME280_pressure;Samples;Min_cycle;Max_cycle;Signal;HPM_P1;HPM_P2
2021/09/21 00:01:51;;;;;;;9.77;1.50;;;;;;;;;;4956783;28;20815;-78
2021/09/21 00:04:17;;;;;;;;;;;;;;;;;;4958666;28;20066;-78
2021/09/21 00:06:44;;;;;;;13.40;1.88;;;;;;;;;;4953444;28;19913;-78
2021/09/21 00:09:10;;;;;;;10.60;1.55;;;;;;;;;;4961308;28;20034;-77
2021/09/21 00:11:36;;;;;;;;;;;;;;;;;;4972821;28;20062;-77
2021/09/21 00:14:03;;;;;;;12.45;1.90;;;;;;;;;;4956481;28;19973;-78
2021/09/21 00:16:29;;;;;;;13.68;2.67;;;;;;;;;;4967699;28;20070;-78
2021/09/21 00:18:55;;;;;;;;;;;;;;;;;;4972683;28;20042;-77
2021/09/21 00:21:22;;;;;;;16.30;2.30;;;;;;;;;;4958291;28;19916;-77
2021/09/21 00:23:48;;;;;;;11.35;1.67;;;;;;;;;;4957547;28;20081;-78
2021/09/21 00:26:14;;;;;;;;;;;;;;;;;;4976878;28;20070;-78
2021/09/21 00:28:40;;;;;;;15.00;2.35;;;;;;;;;;4964021;28;20615;-78
2021/09/21 00:31:10;;;;;;;;;;;;;;;;;;4966149;28;20034;-77
2021/09/21 00:33:49;;;;;;;12.73;2.20;;;;;;;;;;4975184;28;19968;-77
2021/09/21 00:36:16;;;;;;;13.70;1.90;;;;;;;;;;4964872;28;20041;-78
2021/09/21 00:38:42;;;;;;;13.98;2.97;;;;;;;;;;4979890;28;20031;-77
2021/09/21 00:41:09;;;;;;;15.65;2.28;;;;;;;;;;4990051;28;20038;-78
2021/09/21 00:43:35;;;;;;;15.63;2.90;;;;;;;;;;4961906;28;20046;-79
2021/09/21 00:46:01;;;;;;;;;;;;;;;;;;4964158;28;20038;-77
2021/09/21 00:48:27;;;;;;;14.93;2.45;;;;;;;;;;4960023;28;20390;-78
2021/09/21 00:50:54;;;;;;;10.70;1.77;;;;;;;;;;4964389;28;20146;-77
2021/09/21 00:53:19;;;;;;;;;;;;;;;;;;4961069;28;20031;-77
2021/09/21 00:55:47;;;;;;;18.08;2.60;;;;;;;;;;4957128;28;19922;-77
2021/09/21 00:58:13;;;;;;;15.95;2.20;;;;;;;;;;4961527;28;20178;-77
2021/09/21 01:00:39;;;;;;;14.77;2.03;;;;;;;;;;4959970;28;20018;-77
2021/09/21 01:03:05;;;;;;;;;;;;;;;;;;4962629;28;20037;-77
2021/09/21 01:05:33;;;;;;;13.23;2.10;;;;;;;;;;4974804;28;19918;-77
2021/09/21 01:07:59;;;;;;;15.82;2.65;;;;;;;;;;4962240;28;20578;-77
2021/09/21 01:10:29;;;;;;;15.90;2.42;;;;;;;;;;4974549;28;20042;-77
2021/09/21 01:12:55;;;;;;;13.73;1.92;;;;;;;;;;4962094;28;20121;-77
2021/09/21 01:15:21;;;;;;;17.30;2.03;;;;;;;;;;4975983;28;20763;-77
2021/09/21 01:17:47;;;;;;;;;;;;;;;;;;4959766;28;21159;-77
2021/09/21 01:20:14;;;;;;;13.52;1.80;;;;;;;;;;4976052;28;19928;-77
2021/09/21 01:22:40;;;;;;;15.27;2.30;;;;;;;;;;4961963;28;20062;-78
2021/09/21 01:25:07;;;;;;;12.82;2.35;;;;;;;;;;4961659;28;20042;-78
2021/09/21 01:27:34;;;;;;;15.40;2.03;;;;;;;;;;4959099;28;20018;-78
2021/09/21 01:30:00;;;;;;;14.25;1.90;;;;;;;;;;4963465;28;20799;-78
2021/09/21 01:32:27;;;;;;;14.00;2.00;;;;;;;;;;4955695;28;20120;-78
2021/09/21 01:34:53;;;;;;;12.15;1.80;;;;;;;;;;4978268;28;20037;-78
2021/09/21 01:37:21;;;;;;;12.20;2.00;;;;;;;;;;4959299;28;20088;-78
2021/09/21 01:39:48;;;;;;;12.88;2.33;;;;;;;;;;4974338;28;20805;-78
2021/09/21 01:42:14;;;;;;;14.13;2.20;;;;;;;;;;4959442;28;20042;-78
2021/09/21 01:44:40;;;;;;;;;;;;;;;;;;4957284;28;20120;-77
2021/09/21 01:47:06;;;;;;;14.27;2.13;;;;;;;;;;4963927;28;20044;-78
2021/09/21 01:52:21;;;;;;;17.55;2.53;;;;;;;;;;4960330;28;19928;-80
2021/09/21 01:59:58;;;;;;;12.75;2.20;;;;;;;;;;4940350;28;20466;-80
2021/09/21 02:02:24;;;;;;;;;;;;;;;;;;4954043;28;20050;-80
2021/09/21 02:04:50;;;;;;;15.07;2.40;;;;;;;;;;4975132;28;19925;-80
2021/09/21 02:07:16;;;;;;;;;;;;;;;;;;4961837;28;20062;-79
2021/09/21 02:09:42;;;;;;;12.70;1.70;;;;;;;;;;4957713;28;20554;-79
2021/09/21 02:12:08;;;;;;;;;;;;;;;;;;4975356;28;20057;-80
2021/09/21 02:14:35;;;;;;;12.57;1.98;;;;;;;;;;4972287;28;20012;-79
2021/09/21 02:17:01;;;;;;;;;;;;;;;;;;4980509;28;20404;-80
2021/09/21 02:19:27;;;;;;;11.52;1.98;;;;;;;;;;4957339;28;19924;-80
2021/09/21 02:21:53;;;;;;;16.48;2.50;;;;;;;;;;4956850;28;20031;-80
2021/09/21 02:24:25;;;;;;;9.95;1.80;;;;;;;;;;4958511;28;20022;-80
2021/09/21 02:26:54;;;;;;;12.50;1.90;;;;;;;;;;4961034;28;20030;-81
2021/09/21 02:29:23;;;;;;;13.65;2.13;;;;;;;;;;4962991;28;20140;-83
2021/09/21 02:31:51;;;;;;;12.95;2.08;;;;;;;;;;4972133;28;20057;-82
2021/09/21 02:34:19;;;;;;;13.38;2.15;;;;;;;;;;4960430;28;20385;-83
2021/09/21 02:36:46;;;;;;;12.20;1.90;;;;;;;;;;4957545;28;21397;-83
2021/09/21 02:39:15;;;;;;;13.65;2.20;;;;;;;;;;4963089;28;20053;-82
2021/09/21 02:41:43;;;;;;;10.10;1.90;;;;;;;;;;4975499;28;20811;-81
2021/09/21 02:44:10;;;;;;;9.85;1.70;;;;;;;;;;4963130;28;20133;-82
2021/09/21 02:46:39;;;;;;;15.88;2.13;;;;;;;;;;4956101;28;20183;-82
2021/09/21 02:49:07;;;;;;;18.38;2.20;;;;;;;;;;4989251;28;20444;-82
2021/09/21 02:51:34;;;;;;;13.57;2.20;;;;;;;;;;4985569;28;20022;-85
2021/09/21 02:54:02;;;;;;;20.42;2.38;;;;;;;;;;4979202;28;20027;-86
2021/09/21 02:56:29;;;;;;;15.52;2.38;;;;;;;;;;4962479;28;20042;-84
2021/09/21 02:58:56;;;;;;;15.43;2.10;;;;;;;;;;4966086;28;20038;-82
2021/09/21 03:01:23;;;;;;;14.20;2.05;;;;;;;;;;4974868;28;20043;-81
2021/09/21 03:03:54;;;;;;;12.40;1.70;;;;;;;;;;4971751;28;20038;-81
2021/09/21 03:06:25;;;;;;;16.42;2.13;;;;;;;;;;4962681;28;20121;-81
2021/09/21 03:08:58;;;;;;;9.32;1.60;;;;;;;;;;4957642;28;20049;-81
2021/09/21 03:11:27;;;;;;;13.43;2.45;;;;;;;;;;4959663;28;20186;-80
2021/09/21 03:19:28;;;;;;;13.35;1.80;;;;;;;;;;4960516;28;20151;-77
2021/09/21 03:21:57;;;;;;;16.25;1.95;;;;;;;;;;4957330;28;20195;-77
2021/09/21 03:24:28;;;;;;;12.65;1.73;;;;;;;;;;4963127;28;20053;-78
2021/09/21 03:26:58;;;;;;;15.32;1.80;;;;;;;;;;4941161;28;20129;-78
2021/09/21 03:29:27;;;;;;;10.77;1.77;;;;;;;;;;4955829;28;20073;-78
2021/09/21 03:31:55;;;;;;;12.48;2.15;;;;;;;;;;4961320;28;20034;-78
2021/09/21 03:34:25;;;;;;;12.30;1.77;;;;;;;;;;4972204;28;20034;-77
2021/09/21 03:36:53;;;;;;;13.48;1.83;;;;;;;;;;4959468;28;20035;-77
2021/09/21 03:39:21;;;;;;;11.50;1.80;;;;;;;;;;4958392;28;20026;-77
2021/09/21 03:41:49;;;;;;;12.38;1.95;;;;;;;;;;4956235;28;20045;-77
2021/09/21 03:44:18;;;;;;;14.70;2.05;;;;;;;;;;4972581;28;20062;-77
2021/09/21 03:46:46;;;;;;;9.25;1.67;;;;;;;;;;4952544;28;20113;-78
2021/09/21 03:49:15;;;;;;;12.65;2.33;;;;;;;;;;4954576;28;20113;-77
2021/09/21 03:51:44;;;;;;;14.02;2.15;;;;;;;;;;4945268;28;20022;-78
2021/09/21 03:54:11;;;;;;;10.25;1.70;;;;;;;;;;4953501;28;20110;-78
2021/09/21 03:56:42;;;;;;;12.90;2.00;;;;;;;;;;4950462;28;20712;-77
2021/09/21 03:59:10;;;;;;;12.27;2.15;;;;;;;;;;4932334;28;21160;-77
2021/09/21 04:01:37;;;;;;;18.88;2.33;;;;;;;;;;4917077;28;20039;-77
2021/09/21 04:04:05;;;;;;;16.38;2.10;;;;;;;;;;4948797;28;20049;-78
2021/09/21 04:06:33;;;;;;;11.88;2.00;;;;;;;;;;4952176;28;20029;-77
2021/09/21 04:09:00;;;;;;;10.68;1.67;;;;;;;;;;4958312;28;20070;-77
2021/09/21 04:11:31;;;;;;;13.32;1.92;;;;;;;;;;4959006;28;20042;-77
2021/09/21 04:13:59;;;;;;;10.45;1.70;;;;;;;;;;4954723;28;20050;-77
2021/09/21 04:16:30;;;;;;;9.93;1.60;;;;;;;;;;4957194;28;20814;-77
2021/09/21 04:19:02;;;;;;;13.23;2.17;;;;;;;;;;4956773;28;20566;-77
2021/09/21 04:21:32;;;;;;;12.45;1.98;;;;;;;;;;4950536;28;20112;-77
2021/09/21 04:23:58;;;;;;;11.80;2.28;;;;;;;;;;4975763;28;20035;-78
2021/09/21 04:26:25;;;;;;;12.13;2.40;;;;;;;;;;4946316;28;20065;-78
2021/09/21 04:28:54;;;;;;;15.20;2.05;;;;;;;;;;4961537;28;20062;-78
2021/09/21 04:31:24;;;;;;;9.88;1.75;;;;;;;;;;4971736;28;20038;-78
2021/09/21 04:33:54;;;;;;;15.93;2.45;;;;;;;;;;4970072;28;20413;-77
2021/09/21 04:36:23;;;;;;;14.32;1.95;;;;;;;;;;4978141;28;20113;-77
2021/09/21 04:38:52;;;;;;;16.63;2.35;;;;;;;;;;4955963;28;20049;-77
2021/09/21 04:41:18;;;;;;;13.18;1.90;;;;;;;;;;4941730;28;20786;-77
2021/09/21 04:43:45;;;;;;;13.65;2.15;;;;;;;;;;4955025;28;20836;-78
2021/09/21 04:46:17;;;;;;;11.38;1.88;;;;;;;;;;4959962;28;20052;-78
2021/09/21 04:49:08;;;;;;;13.07;2.03;;;;;;;;;;4916048;28;20039;-79
2021/09/21 04:51:34;;;;;;;12.25;1.75;;;;;;;;;;4912658;28;20047;-77
2021/09/21 04:54:02;;;;;;;13.45;1.70;;;;;;;;;;4918778;28;20079;-78
2021/09/21 04:56:30;;;;;;;18.35;2.67;;;;;;;;;;4904276;28;20505;-78
2021/09/21 04:58:58;;;;;;;14.88;1.80;;;;;;;;;;4913846;28;20036;-78
2021/09/21 05:01:27;;;;;;;14.75;2.08;;;;;;;;;;4916875;28;20039;-78
2021/09/21 05:03:56;;;;;;;10.07;1.85;;;;;;;;;;4915899;28;20233;-78
2021/09/21 05:06:23;;;;;;;12.73;2.20;;;;;;;;;;4919860;28;20035;-78
2021/09/21 05:08:53;;;;;;;10.55;1.95;;;;;;;;;;4903041;28;20502;-79
2021/09/21 05:11:21;;;;;;;16.67;1.77;;;;;;;;;;4899332;28;20157;-78
2021/09/21 05:13:49;;;;;;;12.93;2.20;;;;;;;;;;4916644;28;20035;-78
2021/09/21 05:16:16;;;;;;;11.63;1.90;;;;;;;;;;4919560;28;20039;-77
2021/09/21 05:18:43;;;;;;;13.02;2.17;;;;;;;;;;4913276;28;20203;-78
2021/09/21 05:21:11;;;;;;;13.95;2.10;;;;;;;;;;4955084;28;20038;-79
2021/09/21 05:23:38;;;;;;;9.88;2.25;;;;;;;;;;4972287;28;20042;-78
2021/09/21 05:26:05;;;;;;;15.93;2.65;;;;;;;;;;4960873;28;20065;-78
2021/09/21 05:28:32;;;;;;;10.05;1.73;;;;;;;;;;4950828;28;20037;-78
2021/09/21 05:31:01;;;;;;;14.35;1.88;;;;;;;;;;4962618;28;20038;-78
2021/09/21 05:33:29;;;;;;;9.82;1.83;;;;;;;;;;4955519;28;20034;-78
2021/09/21 05:35:57;;;;;;;14.43;2.05;;;;;;;;;;4961315;28;20109;-77
2021/09/21 05:38:27;;;;;;;11.88;1.95;;;;;;;;;;4968209;28;20042;-78
2021/09/21 05:40:56;;;;;;;7.50;1.48;;;;;;;;;;4933381;28;20386;-77
2021/09/21 05:43:50;;;;;;;9.23;2.03;;;;;;;;;;4936545;28;20058;-77
2021/09/21 05:46:16;;;;;;;10.88;1.90;;;;;;;;;;4923503;28;20039;-78
2021/09/21 05:48:43;;;;;;;11.93;2.20;;;;;;;;;;4935301;28;20050;-78
2021/09/21 05:51:10;;;;;;;12.02;2.47;;;;;;;;;;4937802;28;20031;-78
2021/09/21 05:53:37;;;;;;;11.15;1.98;;;;;;;;;;4914691;28;20046;-78
2021/09/21 05:56:03;;;;;;;14.05;2.28;;;;;;;;;;4917299;28;20042;-78
2021/09/21 05:58:30;;;;;;;12.27;2.15;;;;;;;;;;4916706;28;20047;-78
2021/09/21 06:00:57;;;;;;;13.02;2.00;;;;;;;;;;4939985;28;20556;-77
2021/09/21 06:03:24;;;;;;;13.20;2.35;;;;;;;;;;4937984;28;20058;-78
2021/09/21 06:05:52;;;;;;;13.52;2.10;;;;;;;;;;4933987;28;20054;-78
2021/09/21 06:08:20;;;;;;;10.60;2.00;;;;;;;;;;4938486;28;20767;-78
2021/09/21 06:10:47;;;;;;;10.20;1.88;;;;;;;;;;4916057;28;20065;-78
2021/09/21 06:13:16;;;;;;;9.77;2.13;;;;;;;;;;4921259;28;20043;-78
2021/09/21 06:15:44;;;;;;;11.27;2.10;;;;;;;;;;4932590;28;20055;-77
2021/09/21 06:18:14;;;;;;;9.63;1.98;;;;;;;;;;4934853;28;20105;-78
2021/09/21 06:20:41;;;;;;;9.43;1.95;;;;;;;;;;4933009;28;20432;-79
2021/09/21 06:23:08;;;;;;;11.57;2.38;;;;;;;;;;4918960;28;20067;-78
2021/09/21 06:25:37;;;;;;;14.02;2.10;;;;;;;;;;4944585;28;20743;-78
2021/09/21 06:28:05;;;;;;;12.95;2.00;;;;;;;;;;4952167;28;20029;-77
2021/09/21 06:30:35;;;;;;;12.95;2.42;;;;;;;;;;4967203;28;20066;-78
2021/09/21 06:33:04;;;;;;;11.15;1.98;;;;;;;;;;4959427;28;20038;-77
2021/09/21 06:35:31;;;;;;;10.00;2.40;;;;;;;;;;4952350;28;20411;-78
2021/09/21 06:37:58;;;;;;;9.73;2.10;;;;;;;;;;4953164;28;20104;-78
2021/09/21 06:40:27;;;;;;;11.57;1.60;;;;;;;;;;4959836;28;20497;-78
2021/09/21 06:42:53;;;;;;;9.35;2.08;;;;;;;;;;4958946;28;20625;-78
2021/09/21 06:45:20;;;;;;;10.68;2.20;;;;;;;;;;4959216;28;20030;-77
2021/09/21 06:47:49;;;;;;;9.85;1.98;;;;;;;;;;4950397;28;20043;-78
2021/09/21 06:50:15;;;;;;;12.05;2.00;;;;;;;;;;4959597;28;20053;-78
2021/09/21 06:52:43;;;;;;;9.20;1.80;;;;;;;;;;4946180;28;20838;-79
2021/09/21 06:55:10;;;;;;;9.43;1.70;;;;;;;;;;4976316;28;20049;-78
2021/09/21 06:57:41;;;;;;;13.38;1.80;;;;;;;;;;4952250;28;20027;-80
2021/09/21 07:00:10;;;;;;;12.32;1.90;;;;;;;;;;4967806;28;20590;-78
2021/09/21 07:02:40;;;;;;;10.75;2.00;;;;;;;;;;4951010;28;20049;-78
2021/09/21 07:05:11;;;;;;;10.52;1.88;;;;;;;;;;4944696;28;20443;-80
2021/09/21 07:07:49;;;;;;;11.98;2.05;;;;;;;;;;4949207;28;20515;-78
2021/09/21 07:10:18;;;;;;;13.05;2.47;;;;;;;;;;4949611;28;20097;-78
2021/09/21 07:12:45;;;;;;;10.70;1.77;;;;;;;;;;4948027;28;23711;-77
2021/09/21 07:15:14;;;;;;;14.02;2.10;;;;;;;;;;4946835;28;20047;-79
2021/09/21 07:17:42;;;;;;;10.77;1.75;;;;;;;;;;4948522;28;20046;-80
2021/09/21 07:20:10;;;;;;;9.93;1.75;;;;;;;;;;4955771;28;20118;-79
2021/09/21 07:22:38;;;;;;;12.23;1.70;;;;;;;;;;4950725;28;20096;-78
2021/09/21 07:25:08;;;;;;;11.10;1.90;;;;;;;;;;4950394;28;20399;-79
2021/09/21 07:27:41;;;;;;;11.70;2.13;;;;;;;;;;4935040;28;20053;-79
2021/09/21 07:30:08;;;;;;;9.98;1.40;;;;;;;;;;4955606;28;20039;-77
2021/09/21 07:32:37;;;;;;;9.57;1.65;;;;;;;;;;4943688;28;20042;-78
2021/09/21 07:35:09;;;;;;;9.88;1.67;;;;;;;;;;4959988;28;20029;-80
2021/09/21 07:37:37;;;;;;;8.35;1.40;;;;;;;;;;4951321;28;20093;-79
2021/09/21 07:40:06;;;;;;;13.23;1.95;;;;;;;;;;4933767;28;20096;-78
2021/09/21 07:42:35;;;;;;;9.07;1.63;;;;;;;;;;4938786;28;20042;-80
2021/09/21 07:45:07;;;;;;;9.05;1.95;;;;;;;;;;4952528;28;20051;-78
2021/09/21 07:47:36;;;;;;;8.70;1.50;;;;;;;;;;4950053;28;20088;-80
2021/09/21 07:50:04;;;;;;;7.85;1.48;;;;;;;;;;4956530;28;20157;-78
2021/09/21 07:52:31;;;;;;;9.85;2.15;;;;;;;;;;4929883;28;20156;-78
2021/09/21 07:55:00;;;;;;;8.13;1.98;;;;;;;;;;4954286;28;20050;-79
2021/09/21 07:57:27;;;;;;;8.13;1.58;;;;;;;;;;4950665;28;20030;-79
2021/09/21 07:59:55;;;;;;;9.65;1.70;;;;;;;;;;4970688;28;20073;-80
2021/09/21 08:02:23;;;;;;;11.30;1.77;;;;;;;;;;4971218;28;20170;-80
2021/09/21 08:04:50;;;;;;;11.52;1.67;;;;;;;;;;4964302;28;20475;-80
2021/09/21 08:07:21;;;;;;;10.68;1.58;;;;;;;;;;4975491;28;20141;-80
2021/09/21 08:09:49;;;;;;;6.82;1.35;;;;;;;;;;4964626;28;20069;-80
2021/09/21 08:12:16;;;;;;;11.05;2.88;;;;;;;;;;4955713;28;20033;-80
2021/09/21 08:14:48;;;;;;;8.13;1.85;;;;;;;;;;4934069;28;20165;-80
2021/09/21 08:17:22;;;;;;;9.05;2.17;;;;;;;;;;4961249;28;20061;-80
2021/09/21 08:19:55;;;;;;;9.40;1.65;;;;;;;;;;4971370;28;20070;-80
2021/09/21 08:22:25;;;;;;;7.53;1.52;;;;;;;;;;4970411;28;20038;-80
2021/09/21 08:24:56;;;;;;;7.93;1.40;;;;;;;;;;4958145;28;20124;-80
2021/09/21 08:27:27;;;;;;;7.60;1.30;;;;;;;;;;4974685;28;20709;-80
2021/09/21 08:29:53;;;;;;;9.05;1.35;;;;;;;;;;4960450;28;20034;-80
2021/09/21 08:32:20;;;;;;;7.90;1.23;;;;;;;;;;4982061;28;20121;-79
2021/09/21 08:34:49;;;;;;;6.93;1.20;;;;;;;;;;4973239;28;20164;-80
2021/09/21 08:37:18;;;;;;;6.00;1.05;;;;;;;;;;4975274;28;20080;-80
2021/09/21 08:39:44;;;;;;;6.18;1.00;;;;;;;;;;4972040;28;20190;-80
2021/09/21 08:42:14;;;;;;;6.28;0.88;;;;;;;;;;4970855;28;20046;-80
2021/09/21 08:44:42;;;;;;;5.72;1.05;;;;;;;;;;4967578;28;20831;-80
2021/09/21 08:47:11;;;;;;;5.72;1.35;;;;;;;;;;4976771;28;20068;-80
2021/09/21 08:49:39;;;;;;;8.32;1.30;;;;;;;;;;4957036;28;20037;-80
2021/09/21 08:52:09;;;;;;;5.35;1.08;;;;;;;;;;4949235;28;20125;-80
2021/09/21 08:54:37;;;;;;;14.20;1.40;;;;;;;;;;4951987;28;20099;-80
2021/09/21 08:57:05;;;;;;;7.60;1.02;;;;;;;;;;4957576;28;20073;-80
2021/09/21 08:59:35;;;;;;;9.25;1.33;;;;;;;;;;4955003;28;20031;-79
2021/09/21 09:02:06;;;;;;;6.32;1.02;;;;;;;;;;4962877;28;20088;-79
2021/09/21 09:04:45;;;;;;;8.30;1.25;;;;;;;;;;4965024;28;20113;-79
2021/09/21 09:07:14;;;;;;;10.77;1.63;;;;;;;;;;4958807;28;20038;-79
2021/09/21 09:09:42;;;;;;;13.52;1.67;;;;;;;;;;4973499;28;20046;-81
2021/09/21 09:12:09;;;;;;;11.82;1.63;;;;;;;;;;4956753;28;20026;-79
2021/09/21 09:14:40;;;;;;;9.32;1.60;;;;;;;;;;4956237;28;20129;-79
2021/09/21 09:17:08;;;;;;;13.65;2.08;;;;;;;;;;4954781;28;20116;-79
2021/09/21 09:19:42;;;;;;;10.70;2.17;;;;;;;;;;4940425;28;20089;-79
2021/09/21 09:22:14;;;;;;;13.50;1.70;;;;;;;;;;4951557;28;20070;-78
2021/09/21 09:25:12;;;;;;;10.00;1.83;;;;;;;;;;4940369;28;20109;-78
2021/09/21 09:27:41;;;;;;;11.65;2.47;;;;;;;;;;4913505;28;20038;-78
2021/09/21 09:30:11;;;;;;;9.57;1.80;;;;;;;;;;4933212;28;20167;-78
2021/09/21 09:32:46;;;;;;;11.43;2.00;;;;;;;;;;4933646;28;20129;-78
2021/09/21 09:35:29;;;;;;;12.18;1.77;;;;;;;;;;4957016;28;20038;-78
2021/09/21 09:37:59;;;;;;;10.50;1.92;;;;;;;;;;4944351;28;20069;-78
2021/09/21 09:40:27;;;;;;;8.55;1.60;;;;;;;;;;4935236;28;20480;-78
2021/09/21 09:42:55;;;;;;;8.10;1.10;;;;;;;;;;4958048;28;20155;-78
2021/09/21 09:45:37;;;;;;;6.00;0.98;;;;;;;;;;4919526;28;20149;-78
2021/09/21 09:48:06;;;;;;;6.85;0.70;;;;;;;;;;4939008;28;20088;-78
2021/09/21 09:50:44;;;;;;;2.35;0.55;;;;;;;;;;4948929;28;20077;-78
2021/09/21 09:53:13;;;;;;;5.25;1.08;;;;;;;;;;4950511;28;20199;-80
2021/09/21 09:55:44;;;;;;;5.80;0.77;;;;;;;;;;4949908;28;20070;-78
2021/09/21 09:58:15;;;;;;;4.25;0.70;;;;;;;;;;4933857;28;20132;-78
2021/09/21 10:00:43;;;;;;;6.60;0.90;;;;;;;;;;4948394;28;20038;-78
2021/09/21 10:03:10;;;;;;;2.15;0.50;;;;;;;;;;4954720;28;20046;-79
2021/09/21 10:05:39;;;;;;;4.60;0.80;;;;;;;;;;4968805;28;20042;-79
2021/09/21 10:08:08;;;;;;;3.53;1.13;;;;;;;;;;4976097;28;20030;-79
2021/09/21 10:10:39;;;;;;;4.45;0.80;;;;;;;;;;4936240;28;20145;-79
2021/09/21 10:13:08;;;;;;;4.72;0.60;;;;;;;;;;4934556;28;20039;-79
2021/09/21 10:15:34;;;;;;;4.57;0.80;;;;;;;;;;4937915;28;20081;-79
2021/09/21 10:18:02;;;;;;;3.65;0.93;;;;;;;;;;4924808;28;20035;-79
2021/09/21 10:20:45;;;;;;;5.85;0.80;;;;;;;;;;4932513;28;20208;-79
2021/09/21 10:23:15;;;;;;;6.38;1.85;;;;;;;;;;4936053;28;20542;-79
2021/09/21 10:25:44;;;;;;;6.03;1.17;;;;;;;;;;4921632;28;20035;-78
2021/09/21 10:28:19;;;;;;;6.18;0.90;;;;;;;;;;4938154;28;20077;-78
2021/09/21 10:30:59;;;;;;;6.95;1.08;;;;;;;;;;4904546;28;20062;-78
2021/09/21 10:33:30;;;;;;;6.90;1.27;;;;;;;;;;4939150;28;20476;-77
2021/09/21 10:35:56;;;;;;;8.48;1.23;;;;;;;;;;4930736;28;20046;-78
2021/09/21 10:38:24;;;;;;;7.00;1.35;;;;;;;;;;4914862;28;20047;-80
2021/09/21 10:40:55;;;;;;;6.82;1.13;;;;;;;;;;4928846;28;20050;-78
2021/09/21 10:43:23;;;;;;;10.52;1.52;;;;;;;;;;4922681;28;20137;-78
2021/09/21 10:45:54;;;;;;;9.70;2.00;;;;;;;;;;4932350;28;20035;-79
2021/09/21 10:48:21;;;;;;;7.65;1.63;;;;;;;;;;4920800;28;20129;-79
2021/09/21 10:50:57;;;;;;;8.95;1.60;;;;;;;;;;4936522;28;20038;-80
2021/09/21 10:53:28;;;;;;;13.27;1.80;;;;;;;;;;4920467;28;20046;-79
2021/09/21 10:56:02;;;;;;;8.75;1.80;;;;;;;;;;4953869;28;20035;-81
2021/09/21 10:58:32;;;;;;;12.77;1.98;;;;;;;;;;4951977;28;20034;-80
2021/09/21 11:01:02;;;;;;;7.45;1.60;;;;;;;;;;4961585;28;20034;-80
2021/09/21 11:03:31;;;;;;;12.60;1.90;;;;;;;;;;4966118;28;20121;-77
2021/09/21 11:05:58;;;;;;;12.05;2.05;;;;;;;;;;4955763;28;20070;-80
2021/09/21 11:08:47;;;;;;;11.93;2.30;;;;;;;;;;4942175;28;20656;-78
2021/09/21 11:11:13;;;;;;;12.38;1.73;;;;;;;;;;4959114;28;20051;-78
2021/09/21 11:13:43;;;;;;;12.60;2.10;;;;;;;;;;4960493;28;20554;-78
2021/09/21 11:16:13;;;;;;;10.13;1.67;;;;;;;;;;4964044;28;20109;-78
2021/09/21 11:18:46;;;;;;;11.38;1.77;;;;;;;;;;4951380;28;20097;-78
2021/09/21 11:21:13;;;;;;;11.52;1.90;;;;;;;;;;4969760;28;20284;-78
2021/09/21 11:23:43;;;;;;;14.85;2.00;;;;;;;;;;4952718;28;20125;-79
2021/09/21 11:26:11;;;;;;;11.77;1.98;;;;;;;;;;4950042;28;20026;-77
2021/09/21 11:28:42;;;;;;;12.38;2.22;;;;;;;;;;4965773;28;20666;-80
2021/09/21 11:31:09;;;;;;;14.77;2.33;;;;;;;;;;4949163;28;20095;-78
2021/09/21 11:33:39;;;;;;;11.43;1.83;;;;;;;;;;4959616;28;20043;-78
2021/09/21 11:36:07;;;;;;;12.85;2.20;;;;;;;;;;4969229;28;20034;-78
2021/09/21 11:38:44;;;;;;;13.68;1.95;;;;;;;;;;4950052;28;20073;-77
2021/09/21 11:41:11;;;;;;;;;;;;;;;;;;4958738;28;20042;-79
2021/09/21 11:43:40;;;;;;;10.68;2.28;;;;;;;;;;4948087;28;19925;-79
2021/09/21 11:46:07;;;;;;;10.82;2.20;;;;;;;;;;4953574;28;20042;-80
2021/09/21 11:48:35;;;;;;;9.98;2.00;;;;;;;;;;4952316;28;20042;-79
2021/09/21 11:51:02;;;;;;;9.02;1.88;;;;;;;;;;4956164;28;20046;-80
2021/09/21 11:53:31;;;;;;;7.20;1.85;;;;;;;;;;4951298;28;20052;-80
2021/09/21 11:56:01;;;;;;;10.25;2.30;;;;;;;;;;4957517;28;20035;-80
2021/09/21 11:58:35;;;;;;;13.43;1.92;;;;;;;;;;4946939;28;20070;-80
2021/09/21 12:01:05;;;;;;;8.73;1.70;;;;;;;;;;4955459;28;20038;-81
2021/09/21 12:03:37;;;;;;;10.10;1.70;;;;;;;;;;4955719;28;20038;-81
2021/09/21 12:06:05;;;;;;;9.77;2.45;;;;;;;;;;4941612;28;20504;-81
2021/09/21 12:08:42;;;;;;;12.35;1.50;;;;;;;;;;4966571;28;20447;-80
2021/09/21 12:11:11;;;;;;;9.23;2.10;;;;;;;;;;4952394;28;20034;-80
2021/09/21 12:13:41;;;;;;;8.82;1.85;;;;;;;;;;4949883;28;20043;-80
2021/09/21 12:16:09;;;;;;;12.73;2.08;;;;;;;;;;4946194;28;20036;-80
2021/09/21 12:18:38;;;;;;;12.43;2.10;;;;;;;;;;4949348;28;20022;-80
2021/09/21 12:21:11;;;;;;;10.38;2.08;;;;;;;;;;4962367;28;20080;-80
2021/09/21 12:23:41;;;;;;;8.48;1.83;;;;;;;;;;4953315;28;20242;-79
2021/09/21 12:26:08;;;;;;;9.50;1.92;;;;;;;;;;4942524;28;20067;-82
2021/09/21 12:28:39;;;;;;;8.00;1.67;;;;;;;;;;4957717;28;20048;-81
2021/09/21 12:31:23;;;;;;;11.73;1.70;;;;;;;;;;4957742;28;20035;-79
2021/09/21 12:33:56;;;;;;;7.88;1.77;;;;;;;;;;4958890;28;20034;-79
2021/09/21 12:36:45;;;;;;;8.30;1.83;;;;;;;;;;4960129;28;20046;-81
2021/09/21 12:39:23;;;;;;;12.00;2.17;;;;;;;;;;4960620;28;20030;-79
2021/09/21 12:41:52;;;;;;;8.88;1.70;;;;;;;;;;4956477;28;20051;-81
2021/09/21 12:44:22;;;;;;;9.18;1.70;;;;;;;;;;4973994;28;20537;-81
2021/09/21 12:46:51;;;;;;;10.73;2.15;;;;;;;;;;4958434;28;20508;-78
2021/09/21 12:49:20;;;;;;;8.75;1.80;;;;;;;;;;4973590;28;20038;-78
2021/09/21 12:51:48;;;;;;;11.80;2.03;;;;;;;;;;4954894;28;21026;-79
2021/09/21 12:54:16;;;;;;;11.30;1.98;;;;;;;;;;4957725;28;20081;-81
2021/09/21 12:56:43;;;;;;;10.88;2.00;;;;;;;;;;4952065;28;20762;-81
2021/09/21 12:59:13;;;;;;;10.05;2.05;;;;;;;;;;4960312;28;20493;-80
2021/09/21 13:01:41;;;;;;;10.70;2.20;;;;;;;;;;4958148;28;20053;-80
2021/09/21 13:04:11;;;;;;;12.07;1.83;;;;;;;;;;4968183;28;20054;-80
2021/09/21 13:06:42;;;;;;;13.77;2.10;;;;;;;;;;4969347;28;20052;-78
2021/09/21 13:09:11;;;;;;;11.40;2.05;;;;;;;;;;4976941;28;20455;-79
2021/09/21 13:11:38;;;;;;;14.80;2.03;;;;;;;;;;4969691;28;20117;-80
2021/09/21 13:14:04;;;;;;;11.13;1.85;;;;;;;;;;4978379;28;20080;-81
2021/09/21 13:16:34;;;;;;;11.50;1.90;;;;;;;;;;4959004;28;20117;-79
2021/09/21 13:19:01;;;;;;;9.52;1.75;;;;;;;;;;4975351;28;20156;-79
2021/09/21 13:21:30;;;;;;;10.43;2.08;;;;;;;;;;4977110;28;20030;-78
2021/09/21 13:23:59;;;;;;;13.25;2.50;;;;;;;;;;4976276;28;20637;-79
2021/09/21 13:26:36;;;;;;;11.60;2.00;;;;;;;;;;4969869;28;20576;-80
2021/09/21 13:29:03;;;;;;;12.82;3.28;;;;;;;;;;4976710;28;20072;-80
2021/09/21 13:31:32;;;;;;;12.25;2.35;;;;;;;;;;4975015;28;20041;-80
2021/09/21 13:33:59;;;;;;;13.15;2.10;;;;;;;;;;4975356;28;20034;-79
2021/09/21 13:36:28;;;;;;;15.85;2.10;;;;;;;;;;4977210;28;20046;-79
2021/09/21 13:38:57;;;;;;;11.63;2.35;;;;;;;;;;4974334;28;20074;-79
2021/09/21 13:41:25;;;;;;;9.60;2.20;;;;;;;;;;4975675;28;20039;-79
2021/09/21 13:43:53;;;;;;;13.48;2.38;;;;;;;;;;4976060;28;20100;-80
2021/09/21 13:46:20;;;;;;;12.50;1.90;;;;;;;;;;4972976;28;20049;-80
2021/09/21 13:48:54;;;;;;;13.52;2.20;;;;;;;;;;4969100;28;20143;-80
2021/09/21 13:51:23;;;;;;;10.38;1.58;;;;;;;;;;4963191;28;20027;-80
2021/09/21 13:53:49;;;;;;;11.95;2.10;;;;;;;;;;4954751;28;20070;-79
2021/09/21 13:56:18;;;;;;;12.23;2.20;;;;;;;;;;4954201;28;20476;-79
2021/09/21 13:58:47;;;;;;;11.05;1.90;;;;;;;;;;4959096;28;21496;-79
2021/09/21 14:01:17;;;;;;;13.65;2.20;;;;;;;;;;4958350;28;20380;-79
2021/09/21 14:03:44;;;;;;;10.60;2.05;;;;;;;;;;4948312;28;20038;-78
2021/09/21 14:06:12;;;;;;;9.90;1.80;;;;;;;;;;4961266;28;20037;-77
2021/09/21 14:08:40;;;;;;;11.98;1.90;;;;;;;;;;4955396;28;20038;-79
2021/09/21 14:11:07;;;;;;;12.57;2.40;;;;;;;;;;4957153;28;20034;-79
2021/09/21 14:13:35;;;;;;;14.07;1.98;;;;;;;;;;4949524;28;20042;-78
2021/09/21 14:16:02;;;;;;;11.45;1.73;;;;;;;;;;4971911;28;20515;-79
2021/09/21 14:18:29;;;;;;;10.05;1.52;;;;;;;;;;4968787;28;20061;-78
2021/09/21 14:21:00;;;;;;;11.45;1.90;;;;;;;;;;4976162;28;20046;-78
2021/09/21 14:23:30;;;;;;;11.23;1.60;;;;;;;;;;4950900;28;20042;-78
2021/09/21 14:25:59;;;;;;;9.05;1.80;;;;;;;;;;4973755;28;20104;-78
2021/09/21 14:28:26;;;;;;;8.68;1.63;;;;;;;;;;4956537;28;20042;-79
2021/09/21 14:30:54;;;;;;;11.27;1.90;;;;;;;;;;4958178;28;20034;-79
2021/09/21 14:33:23;;;;;;;10.40;1.90;;;;;;;;;;4971438;28;20112;-79
2021/09/21 14:35:50;;;;;;;15.82;2.15;;;;;;;;;;4958639;28;20244;-79
2021/09/21 14:38:23;;;;;;;11.85;1.88;;;;;;;;;;4952865;28;20030;-79
2021/09/21 14:40:54;;;;;;;10.82;1.75;;;;;;;;;;4957748;28;20047;-79
2021/09/21 14:43:23;;;;;;;11.32;2.20;;;;;;;;;;4961331;28;20173;-79
2021/09/21 14:45:50;;;;;;;12.65;2.47;;;;;;;;;;4951153;28;20045;-79
2021/09/21 14:48:16;;;;;;;13.98;2.17;;;;;;;;;;4946926;28;20061;-78
2021/09/21 14:50:44;;;;;;;10.40;1.85;;;;;;;;;;4969543;28;20031;-78
2021/09/21 14:53:11;;;;;;;12.77;1.98;;;;;;;;;;4954095;28;20093;-78
2021/09/21 14:55:37;;;;;;;10.73;1.50;;;;;;;;;;4947294;28;20042;-79
2021/09/21 14:58:04;;;;;;;9.18;1.80;;;;;;;;;;4958583;28;20061;-78
2021/09/21 15:00:37;;;;;;;11.20;1.85;;;;;;;;;;4965641;28;20038;-79
2021/09/21 15:03:04;;;;;;;8.88;1.70;;;;;;;;;;4932390;28;20049;-79